createdAt,value
2024-04-25T00:01:43.968Z,99.90
2024-04-25T00:04:11.065Z,99.90
2024-04-25T00:06:38.553Z,99.90
2024-04-25T00:09:06.319Z,99.90
2024-04-25T00:11:33.785Z,99.90
2024-04-25T00:14:00.898Z,99.90
2024-04-25T00:16:28.631Z,99.90
2024-04-25T00:18:55.753Z,99.90
2024-04-25T00:21:23.199Z,99.90
2024-04-25T00:23:50.174Z,99.90
2024-04-25T00:26:17.598Z,99.90
2024-04-25T00:28:44.990Z,99.90
2024-04-25T00:31:12.425Z,99.90
2024-04-25T00:33:41.330Z,99.90
2024-04-25T00:36:08.875Z,99.90
2024-04-25T00:38:36.144Z,99.90
2024-04-25T00:41:03.853Z,99.90
2024-04-25T00:43:32.450Z,99.90
2024-04-25T00:46:00.695Z,99.90
2024-04-25T00:48:30.059Z,99.90
2024-04-25T00:50:59.538Z,99.90
2024-04-25T00:53:28.529Z,99.90
2024-04-25T00:55:57.665Z,99.90
2024-04-25T00:58:27.702Z,99.90
2024-04-25T01:00:56.137Z,99.90
2024-04-25T01:03:25.014Z,99.90
2024-04-25T01:05:55.424Z,99.90
2024-04-25T01:08:23.893Z,99.90
2024-04-25T01:10:53.170Z,99.90
2024-04-25T01:13:21.199Z,99.90
2024-04-25T01:15:48.402Z,99.90
2024-04-25T01:18:16.114Z,99.90
2024-04-25T01:20:43.296Z,99.90
2024-04-25T01:23:12.927Z,99.90
2024-04-25T01:25:40.683Z,99.90
2024-04-25T01:28:08.083Z,99.90
2024-04-25T01:30:36.572Z,99.90
2024-04-25T01:33:05.400Z,99.90
2024-04-25T01:35:33.467Z,99.90
2024-04-25T01:38:01.260Z,99.90
2024-04-25T01:40:28.724Z,99.90
2024-04-25T01:42:55.790Z,99.90
2024-04-25T01:45:23.216Z,99.90
2024-04-25T01:47:50.438Z,99.90
2024-04-25T01:50:18.066Z,99.90
2024-04-25T01:52:45.192Z,99.90
2024-04-25T01:55:12.582Z,99.90
2024-04-25T01:57:39.625Z,99.90
2024-04-25T02:00:08.144Z,99.90
2024-04-25T02:02:35.190Z,99.90
2024-04-25T02:05:02.798Z,99.90
2024-04-25T02:07:30.485Z,99.90
2024-04-25T02:09:57.893Z,99.90
2024-04-25T02:12:24.858Z,99.90
2024-04-25T02:14:52.770Z,99.90
2024-04-25T02:17:19.889Z,99.90
2024-04-25T02:19:47.848Z,99.90
2024-04-25T02:22:33.681Z,99.90
2024-04-25T02:25:16.170Z,99.90
2024-04-25T02:27:45.314Z,99.90
2024-04-25T02:30:12.450Z,99.90
2024-04-25T02:32:43.538Z,99.90
2024-04-25T02:35:10.854Z,99.90
2024-04-25T02:37:38.931Z,99.90
2024-04-25T02:40:07.480Z,99.90
2024-04-25T02:42:34.867Z,99.90
2024-04-25T02:45:02.288Z,99.90
2024-04-25T02:47:29.686Z,99.90
2024-04-25T02:49:57.181Z,99.90
2024-04-25T02:52:24.152Z,99.90
2024-04-25T02:54:54.980Z,99.90
2024-04-25T02:57:21.965Z,99.90
2024-04-25T02:59:49.793Z,99.90
2024-04-25T03:02:17.365Z,99.90
2024-04-25T03:04:44.491Z,99.90
2024-04-25T03:07:11.946Z,99.90
2024-04-25T03:09:38.915Z,99.90
2024-04-25T03:12:06.933Z,99.90
2024-04-25T03:14:33.960Z,99.90
2024-04-25T03:17:01.647Z,99.90
2024-04-25T03:19:29.116Z,99.90
2024-04-25T03:21:56.131Z,99.90
2024-04-25T03:24:23.568Z,99.90
2024-04-25T03:26:50.516Z,99.90
2024-04-25T03:29:18.548Z,99.90
2024-04-25T03:31:45.757Z,99.90
2024-04-25T03:34:13.332Z,99.90
2024-04-25T03:36:40.366Z,99.90
2024-04-25T03:39:07.801Z,99.90
2024-04-25T03:41:34.865Z,99.90
2024-04-25T03:44:02.562Z,99.90
2024-04-25T03:46:29.577Z,99.90
2024-04-25T03:48:57.103Z,99.90
2024-04-25T03:51:24.135Z,99.90
2024-04-25T03:53:52.183Z,99.90
2024-04-25T03:56:19.258Z,99.90
2024-04-25T03:58:47.071Z,99.90
2024-04-25T04:01:14.827Z,99.90
2024-04-25T04:03:42.340Z,99.90
2024-04-25T04:06:09.433Z,99.90
2024-04-25T04:08:37.767Z,99.90
2024-04-25T04:11:05.178Z,99.90
2024-04-25T04:13:36.497Z,99.90
2024-04-25T04:16:08.328Z,99.90
2024-04-25T04:18:35.870Z,99.90
2024-04-25T04:21:02.943Z,99.90
2024-04-25T04:23:30.368Z,99.90
2024-04-25T04:25:57.426Z,99.90
2024-04-25T04:28:24.798Z,99.90
2024-04-25T04:30:51.778Z,99.90
2024-04-25T04:33:19.519Z,99.90
2024-04-25T04:35:47.341Z,99.90
2024-04-25T04:38:14.628Z,99.90
2024-04-25T04:40:42.080Z,99.90
2024-04-25T04:43:09.134Z,99.90
2024-04-25T04:45:36.552Z,99.90
2024-04-25T04:48:06.025Z,99.90
2024-04-25T04:50:36.824Z,99.90
2024-04-25T04:53:03.993Z,99.90
2024-04-25T04:55:31.359Z,99.90
2024-04-25T04:57:58.315Z,99.90
2024-04-25T05:00:26.166Z,99.90
2024-04-25T05:02:53.198Z,99.90
2024-04-25T05:05:22.655Z,99.90
2024-04-25T05:07:57.035Z,99.90
2024-04-25T05:10:26.243Z,99.90
2024-04-25T05:12:56.963Z,99.90
2024-04-25T05:15:24.340Z,99.90
2024-04-25T05:17:51.425Z,99.90
2024-04-25T05:20:18.815Z,99.90
2024-04-25T05:22:45.858Z,99.90
2024-04-25T05:25:13.496Z,99.90
2024-04-25T05:27:40.543Z,99.90
2024-04-25T05:30:08.873Z,99.90
2024-04-25T05:32:36.039Z,99.90
2024-04-25T05:35:05.469Z,99.90
2024-04-25T05:37:33.147Z,99.90
2024-04-25T05:40:00.594Z,99.90
2024-04-25T05:42:27.684Z,99.90
2024-04-25T05:44:55.233Z,99.90
2024-04-25T05:47:22.689Z,99.90
2024-04-25T05:49:52.960Z,99.90
2024-04-25T05:52:20.560Z,99.90
2024-04-25T05:54:50.327Z,99.90
2024-04-25T05:57:18.767Z,99.90
2024-04-25T05:59:46.415Z,99.90
2024-04-25T06:02:13.441Z,99.90
2024-04-25T06:04:40.904Z,99.90
2024-04-25T06:07:07.913Z,99.90
2024-04-25T06:09:35.336Z,99.90
2024-04-25T06:12:02.856Z,99.90
2024-04-25T06:14:30.402Z,99.90
2024-04-25T06:16:57.485Z,99.90
2024-04-25T06:19:24.962Z,99.90
2024-04-25T06:21:52.042Z,99.90
2024-04-25T06:24:19.448Z,99.90
2024-04-25T06:26:46.477Z,99.90
2024-04-25T06:29:14.040Z,99.90
2024-04-25T06:31:41.489Z,99.90
2024-04-25T06:34:10.878Z,99.90
2024-04-25T06:36:38.113Z,99.90
2024-04-25T06:39:05.658Z,99.90
2024-04-25T06:41:40.090Z,99.90
2024-04-25T06:44:23.348Z,99.90
2024-04-25T06:46:54.702Z,99.90
2024-04-25T06:49:22.783Z,99.90
2024-04-25T06:51:50.275Z,99.90
2024-04-25T06:54:18.358Z,99.90
2024-04-25T06:56:45.355Z,99.90
2024-04-25T06:59:12.754Z,99.90
2024-04-25T07:01:41.421Z,99.90
2024-04-25T07:04:08.933Z,99.90
2024-04-25T07:06:36.342Z,99.90
2024-04-25T07:09:07.706Z,99.90
2024-04-25T07:11:36.354Z,99.90
2024-04-25T07:14:04.684Z,99.90
2024-04-25T07:16:31.732Z,99.90
2024-04-25T07:18:59.254Z,99.90
2024-04-25T07:21:28.562Z,99.90
2024-04-25T07:23:58.536Z,99.90
2024-04-25T07:26:27.114Z,99.90
2024-04-25T07:28:56.520Z,99.90
2024-04-25T07:31:24.333Z,99.90
2024-04-25T07:33:51.997Z,99.90
2024-04-25T07:36:22.712Z,99.90
2024-04-25T07:38:50.818Z,99.90
2024-04-25T07:41:18.144Z,99.90
2024-04-25T07:43:45.650Z,99.90
2024-04-25T07:46:13.226Z,99.90
2024-04-25T07:48:41.921Z,99.90
2024-04-25T07:51:09.060Z,99.90
2024-04-25T07:53:36.660Z,99.90
2024-04-25T07:56:03.920Z,99.90
2024-04-25T07:58:31.404Z,99.90
2024-04-25T08:00:58.405Z,99.90
2024-04-25T08:03:26.388Z,99.90
2024-04-25T08:05:53.728Z,99.90
2024-04-25T08:08:25.548Z,99.90
2024-04-25T08:10:53.854Z,99.90
2024-04-25T08:13:21.353Z,99.90
2024-04-25T08:15:48.541Z,99.90
2024-04-25T08:18:16.106Z,99.90
2024-04-25T08:20:43.747Z,99.90
2024-04-25T08:23:10.778Z,99.90
2024-04-25T08:25:38.173Z,99.90
2024-04-25T08:28:08.668Z,99.90
2024-04-25T08:30:36.697Z,99.90
2024-04-25T08:33:04.425Z,99.90
2024-04-25T08:35:31.558Z,99.90
2024-04-25T08:38:00.019Z,99.90
2024-04-25T08:40:27.191Z,99.90
2024-04-25T08:42:55.429Z,99.90
2024-04-25T08:45:26.638Z,99.90
2024-04-25T08:47:56.942Z,99.90
2024-04-25T08:50:28.719Z,99.90
2024-04-25T08:52:57.399Z,99.90
2024-04-25T08:55:24.981Z,99.90
2024-04-25T08:57:52.425Z,99.90
2024-04-25T09:00:19.811Z,99.90
2024-04-25T09:02:51.401Z,99.90
2024-04-25T09:05:23.223Z,99.90
2024-04-25T09:07:50.721Z,99.90
2024-04-25T09:10:18.193Z,99.90
2024-04-25T09:12:45.204Z,99.90
2024-04-25T09:15:12.616Z,99.90
2024-04-25T09:17:40.046Z,99.90
2024-04-25T09:20:08.947Z,99.90
2024-04-25T09:22:38.661Z,99.90
2024-04-25T09:25:07.743Z,99.90
2024-04-25T09:27:35.243Z,99.90
2024-04-25T09:30:02.751Z,99.90
2024-04-25T09:32:30.916Z,99.90
2024-04-25T09:35:02.379Z,99.90
2024-04-25T09:37:33.027Z,99.90
2024-04-25T09:40:05.518Z,99.90
2024-04-25T09:42:36.260Z,99.90
2024-04-25T09:45:13.782Z,99.90
2024-04-25T09:47:54.777Z,99.90
2024-04-25T09:50:28.052Z,99.90
2024-04-25T09:53:04.595Z,99.90
2024-04-25T09:55:40.054Z,99.90
2024-04-25T09:58:19.271Z,99.90
2024-04-25T10:00:47.430Z,99.90
2024-04-25T10:03:16.868Z,99.90
2024-04-25T10:05:44.687Z,99.90
2024-04-25T10:08:12.759Z,99.90
2024-04-25T10:10:40.517Z,99.90
2024-04-25T10:13:17.425Z,99.90
2024-04-25T10:15:52.798Z,99.90
2024-04-25T10:18:20.810Z,99.90
2024-04-25T10:21:03.468Z,99.90
2024-04-25T10:23:37.295Z,99.90
2024-04-25T10:26:04.540Z,99.90
2024-04-25T10:28:33.415Z,99.90
2024-04-25T10:31:00.853Z,99.90
2024-04-25T10:33:28.356Z,99.90
2024-04-25T10:36:07.095Z,99.90
2024-04-25T10:38:34.193Z,99.90
2024-04-25T10:41:01.674Z,99.90
2024-04-25T10:43:29.013Z,99.90
2024-04-25T10:45:56.106Z,99.90
2024-04-25T10:48:24.132Z,99.90
2024-04-25T10:50:51.529Z,99.90
2024-04-25T10:53:23.460Z,99.90
2024-04-25T10:55:51.510Z,99.90
2024-04-25T10:58:19.078Z,99.90
2024-04-25T11:00:46.694Z,99.90
2024-04-25T11:03:13.912Z,99.90
2024-04-25T11:05:42.209Z,99.90
2024-04-25T11:08:09.986Z,99.90
2024-04-25T11:10:37.583Z,99.90
2024-04-25T11:13:05.603Z,99.90
2024-04-25T11:15:33.134Z,99.90
2024-04-25T11:18:09.729Z,99.90
2024-04-25T11:20:42.933Z,99.90
2024-04-25T11:23:20.925Z,99.90
2024-04-25T11:25:51.800Z,99.20
2024-04-25T11:28:20.475Z,99.90
2024-04-25T11:30:48.166Z,99.90
2024-04-25T11:33:22.685Z,99.90
2024-04-25T11:35:50.969Z,99.90
2024-04-25T11:38:18.125Z,99.90
2024-04-25T11:40:47.588Z,99.90
2024-04-25T11:43:19.811Z,99.90
2024-04-25T11:45:48.170Z,99.90
2024-04-25T11:48:23.068Z,99.90
2024-04-25T11:50:50.314Z,99.90
2024-04-25T11:53:18.033Z,99.90
2024-04-25T11:55:46.335Z,99.90
2024-04-25T11:58:13.704Z,99.90
2024-04-25T12:00:41.343Z,99.20
2024-04-25T12:03:08.513Z,98.90
2024-04-25T12:05:36.157Z,99.60
2024-04-25T12:08:06.709Z,99.00
2024-04-25T12:10:34.467Z,98.90
2024-04-25T12:13:02.533Z,98.50
2024-04-25T12:15:29.970Z,97.90
2024-04-25T12:17:57.567Z,97.90
2024-04-25T12:20:26.053Z,97.40
2024-04-25T12:22:53.238Z,96.70
2024-04-25T12:25:22.487Z,96.90
2024-04-25T12:27:50.153Z,97.80
2024-04-25T12:30:17.644Z,97.30
2024-04-25T12:32:44.818Z,98.40
2024-04-25T12:35:12.649Z,96.60
2024-04-25T12:37:40.409Z,96.60
2024-04-25T12:40:08.777Z,95.50
2024-04-25T12:42:35.746Z,95.60
2024-04-25T12:45:03.273Z,95.40
2024-04-25T12:47:30.539Z,93.40
2024-04-25T12:49:59.485Z,93.70
2024-04-25T12:52:26.532Z,93.70
2024-04-25T12:54:54.192Z,92.90
2024-04-25T12:57:25.062Z,92.50
2024-04-25T12:59:53.061Z,92.80
2024-04-25T13:02:22.116Z,94.10
2024-04-25T13:04:49.689Z,94.80
2024-04-25T13:07:16.743Z,95.10
2024-04-25T13:09:44.152Z,94.60
2024-04-25T13:12:11.265Z,94.60
2024-04-25T13:14:38.730Z,94.80
2024-04-25T13:17:05.738Z,95.50
2024-04-25T13:19:33.200Z,95.80
2024-04-25T13:22:00.802Z,95.80
2024-04-25T13:24:27.762Z,96.40
2024-04-25T13:26:55.316Z,96.40
2024-04-25T13:29:22.353Z,96.80
2024-04-25T13:31:49.750Z,96.40
2024-04-25T13:34:22.802Z,96.70
2024-04-25T13:36:57.161Z,96.70
2024-04-25T13:39:24.444Z,97.30
2024-04-25T13:41:51.979Z,97.60
2024-04-25T13:44:19.246Z,97.60
2024-04-25T13:46:46.649Z,97.80
2024-04-25T13:49:14.289Z,97.60
2024-04-25T13:51:41.786Z,98.00
2024-04-25T13:54:09.142Z,97.90
2024-04-25T13:56:36.660Z,98.00
2024-04-25T13:59:03.819Z,97.90
2024-04-25T14:01:31.340Z,97.10
2024-04-25T14:03:58.911Z,96.90
2024-04-25T14:06:26.723Z,96.30
2024-04-25T14:08:54.221Z,95.90
2024-04-25T14:11:21.716Z,96.50
2024-04-25T14:13:49.670Z,96.60
2024-04-25T14:16:17.150Z,96.20
2024-04-25T14:18:44.638Z,96.20
2024-04-25T14:21:11.658Z,95.90
2024-04-25T14:23:41.448Z,94.50
2024-04-25T14:26:27.556Z,94.90
2024-04-25T14:28:57.161Z,95.20
2024-04-25T14:31:24.293Z,95.00
2024-04-25T14:33:51.929Z,94.50
2024-04-25T14:36:19.319Z,94.40
2024-04-25T14:38:46.913Z,94.90
2024-04-25T14:41:14.184Z,94.50
2024-04-25T14:43:43.013Z,95.20
2024-04-25T14:46:10.236Z,94.60
2024-04-25T14:48:37.683Z,95.00
2024-04-25T14:51:05.609Z,94.00
2024-04-25T14:53:33.261Z,93.70
2024-04-25T14:56:00.498Z,93.30
2024-04-25T14:58:29.131Z,93.80
2024-04-25T15:00:56.494Z,93.20
2024-04-25T15:03:24.010Z,93.10
2024-04-25T15:05:52.282Z,92.40
2024-04-25T15:08:19.818Z,93.30
2024-04-25T15:10:48.034Z,94.30
2024-04-25T15:13:22.091Z,94.10
2024-04-25T15:15:50.596Z,93.40
2024-04-25T15:18:18.616Z,94.10
2024-04-25T15:20:45.730Z,94.90
2024-04-25T15:23:13.549Z,94.30
2024-04-25T15:25:40.732Z,94.60
2024-04-25T15:28:09.332Z,94.60
2024-04-25T15:30:37.617Z,94.60
2024-04-25T15:33:05.237Z,95.00
2024-04-25T15:35:32.991Z,95.00
2024-04-25T15:38:00.032Z,94.80
2024-04-25T15:40:27.486Z,95.20
2024-04-25T15:42:54.421Z,94.70
2024-04-25T15:45:21.906Z,94.60
2024-04-25T15:47:49.599Z,94.60
2024-04-25T15:50:17.221Z,95.60
2024-04-25T15:52:44.298Z,95.60
2024-04-25T15:55:11.691Z,95.20
2024-04-25T15:57:38.659Z,95.20
2024-04-25T16:00:07.043Z,95.00
2024-04-25T16:02:34.124Z,95.50
2024-04-25T16:05:01.714Z,95.90
2024-04-25T16:07:28.763Z,95.60
2024-04-25T16:09:56.375Z,95.80
2024-04-25T16:12:23.716Z,95.80
2024-04-25T16:14:53.793Z,95.50
2024-04-25T16:17:21.004Z,95.80
2024-04-25T16:19:48.402Z,95.60
2024-04-25T16:22:15.526Z,95.20
2024-04-25T16:25:27.187Z,95.80
2024-04-25T16:27:54.614Z,95.80
2024-04-25T16:30:22.294Z,95.70
2024-04-25T16:32:51.141Z,95.50
2024-04-25T16:35:18.427Z,96.00
2024-04-25T16:37:45.838Z,95.40
2024-04-25T16:40:12.902Z,95.90
2024-04-25T16:42:40.406Z,95.50
2024-04-25T16:45:07.546Z,96.30
2024-04-25T16:47:35.215Z,96.30
2024-04-25T16:50:02.444Z,95.80
2024-04-25T16:52:29.896Z,96.30
2024-04-25T16:54:56.969Z,96.30
2024-04-25T16:57:24.335Z,96.50
2024-04-25T16:59:51.419Z,96.70
2024-04-25T17:02:19.383Z,96.70
2024-04-25T17:04:48.775Z,97.10
2024-04-25T17:07:16.400Z,96.50
2024-04-25T17:09:44.371Z,96.50
2024-04-25T17:12:12.011Z,96.60
2024-04-25T17:14:39.062Z,96.40
2024-04-25T17:17:06.622Z,96.30
2024-04-25T17:19:33.644Z,96.40
2024-04-25T17:22:04.211Z,96.50
2024-04-25T17:24:31.970Z,96.70
2024-04-25T17:26:59.436Z,96.70
2024-04-25T17:29:28.734Z,96.90
2024-04-25T17:31:56.364Z,96.70
2024-04-25T17:34:24.122Z,96.80
2024-04-25T17:36:51.180Z,97.00
2024-04-25T17:39:18.631Z,97.00
2024-04-25T17:41:45.760Z,97.50
2024-04-25T17:44:13.163Z,97.30
2024-04-25T17:46:40.138Z,97.20
2024-04-25T17:49:07.668Z,97.10
2024-04-25T17:51:36.863Z,97.40
2024-04-25T17:54:04.614Z,97.50
2024-04-25T17:56:31.612Z,97.70
2024-04-25T17:58:59.003Z,97.40
2024-04-25T18:01:26.008Z,97.60
2024-04-25T18:03:53.400Z,97.60
2024-04-25T18:06:21.272Z,97.70
2024-04-25T18:08:48.792Z,97.80
2024-04-25T18:11:16.364Z,97.80
2024-04-25T18:13:44.522Z,98.00
2024-04-25T18:16:18.995Z,98.00
2024-04-25T18:18:48.081Z,98.10
2024-04-25T18:21:15.802Z,98.10
2024-04-25T18:23:44.221Z,98.10
2024-04-25T18:26:11.315Z,98.10
2024-04-25T18:28:38.750Z,98.20
2024-04-25T18:31:05.694Z,98.20
2024-04-25T18:33:33.521Z,98.20
2024-04-25T18:36:00.578Z,98.30
2024-04-25T18:38:28.086Z,98.20
2024-04-25T18:40:55.586Z,98.30
2024-04-25T18:43:22.645Z,98.30
2024-04-25T18:45:50.007Z,98.30
2024-04-25T18:48:18.345Z,98.30
2024-04-25T18:50:45.490Z,98.40
2024-04-25T18:53:13.442Z,98.40
2024-04-25T18:55:40.459Z,98.50
2024-04-25T18:58:07.922Z,98.50
2024-04-25T19:00:35.407Z,98.50
2024-04-25T19:03:03.503Z,98.70
2024-04-25T19:05:31.018Z,98.70
2024-04-25T19:07:57.996Z,98.80
2024-04-25T19:10:26.526Z,98.80
2024-04-25T19:12:53.991Z,98.80
2024-04-25T19:15:21.509Z,98.90
2024-04-25T19:17:49.027Z,98.90
2024-04-25T19:20:16.834Z,99.00
2024-04-25T19:22:43.833Z,99.10
2024-04-25T19:25:11.305Z,99.10
2024-04-25T19:27:38.890Z,99.10
2024-04-25T19:30:06.872Z,99.20
2024-04-25T19:32:34.649Z,99.20
2024-04-25T19:35:01.772Z,99.30
2024-04-25T19:37:29.222Z,99.30
2024-04-25T19:39:58.328Z,99.30
2024-04-25T19:42:27.013Z,99.40
2024-04-25T19:44:54.409Z,99.40
2024-04-25T19:47:21.988Z,99.50
2024-04-25T19:49:49.358Z,99.50
2024-04-25T19:52:17.083Z,99.50
2024-04-25T19:54:44.316Z,99.60
2024-04-25T19:57:11.679Z,99.60
2024-04-25T19:59:44.381Z,99.60
2024-04-25T20:02:11.404Z,99.60
2024-04-25T20:04:38.856Z,99.70
2024-04-25T20:07:05.846Z,99.80
2024-04-25T20:09:33.244Z,99.80
2024-04-25T20:12:01.510Z,99.90
2024-04-25T20:14:29.400Z,99.80
2024-04-25T20:16:56.467Z,99.90
2024-04-25T20:19:42.521Z,99.90
2024-04-25T20:22:09.463Z,99.90
2024-04-25T20:24:36.957Z,99.90
2024-04-25T20:27:04.063Z,99.90
2024-04-25T20:29:36.061Z,99.90
2024-04-25T20:32:03.260Z,99.90
2024-04-25T20:34:32.160Z,99.90
2024-04-25T20:36:59.124Z,99.90
2024-04-25T20:39:28.024Z,99.90
2024-04-25T20:41:55.488Z,99.90
2024-04-25T20:44:23.003Z,99.90
2024-04-25T20:46:50.068Z,99.90
2024-04-25T20:49:17.466Z,99.80
2024-04-25T20:51:45.171Z,99.80
2024-04-25T20:54:12.744Z,99.80
2024-04-25T20:56:42.902Z,99.80
2024-04-25T20:59:10.318Z,99.80
2024-04-25T21:01:40.379Z,99.80
2024-04-25T21:04:08.008Z,99.80
2024-04-25T21:06:42.538Z,99.80
2024-04-25T21:09:11.476Z,99.70
2024-04-25T21:11:38.922Z,99.70
2024-04-25T21:14:06.595Z,99.70
2024-04-25T21:16:40.891Z,99.70
2024-04-25T21:19:08.782Z,99.70
2024-04-25T21:21:35.834Z,99.80
2024-04-25T21:24:03.902Z,99.70
2024-04-25T21:26:31.344Z,99.70
2024-04-25T21:28:59.073Z,99.70
2024-04-25T21:31:26.449Z,99.70
2024-04-25T21:33:53.512Z,99.70
2024-04-25T21:36:20.926Z,99.80
2024-04-25T21:38:47.954Z,99.70
2024-04-25T21:41:15.426Z,99.80
2024-04-25T21:43:42.981Z,99.70
2024-04-25T21:46:10.437Z,99.70
2024-04-25T21:48:37.680Z,99.80
2024-04-25T21:51:05.469Z,99.80
2024-04-25T21:53:32.481Z,99.90
2024-04-25T21:55:59.861Z,99.80
2024-04-25T21:58:26.871Z,99.80
2024-04-25T22:00:54.298Z,99.80
2024-04-25T22:03:21.385Z,99.80
2024-04-25T22:05:48.813Z,99.80
2024-04-25T22:08:15.861Z,99.80
2024-04-25T22:10:43.296Z,99.80
2024-04-25T22:13:10.369Z,99.80
2024-04-25T22:15:38.162Z,99.80
2024-04-25T22:18:05.701Z,99.80
2024-04-25T22:20:33.596Z,99.80
2024-04-25T22:23:00.666Z,99.80
2024-04-25T22:25:28.096Z,99.80
2024-04-25T22:27:55.077Z,99.80
2024-04-25T22:30:22.984Z,99.70
2024-04-25T22:32:50.565Z,99.70
2024-04-25T22:35:17.607Z,99.70
2024-04-25T22:37:45.023Z,99.70
2024-04-25T22:40:12.170Z,99.70
2024-04-25T22:42:39.540Z,99.60
2024-04-25T22:47:34.830Z,99.60
2024-04-25T22:50:01.905Z,99.50
2024-04-25T22:52:29.307Z,99.50
2024-04-25T22:54:56.316Z,99.40
2024-04-25T22:57:23.729Z,99.50
2024-04-25T22:59:51.305Z,99.40
2024-04-25T23:02:18.751Z,99.40
2024-04-25T23:04:45.689Z,99.30
2024-04-25T23:07:12.758Z,99.30
2024-04-25T23:09:40.194Z,99.30
2024-04-25T23:12:09.526Z,99.30
2024-04-25T23:14:38.107Z,99.20
2024-04-25T23:17:05.980Z,99.10
2024-04-25T23:19:33.496Z,99.10
2024-04-25T23:22:00.950Z,99.10
2024-04-25T23:24:28.152Z,99.00
2024-04-25T23:26:55.573Z,99.00
2024-04-25T23:29:22.694Z,98.90
2024-04-25T23:31:50.072Z,98.90
2024-04-25T23:34:17.263Z,98.80
2024-04-25T23:36:44.377Z,98.80
2024-04-25T23:39:11.792Z,98.80
2024-04-25T23:41:38.862Z,98.80
2024-04-25T23:44:06.283Z,98.90
2024-04-25T23:46:33.265Z,98.60
2024-04-25T23:49:01.026Z,98.60
2024-04-25T23:51:27.997Z,98.50
2024-04-25T23:53:55.403Z,98.50
2024-04-25T23:56:22.477Z,98.40
2024-04-25T23:58:49.584Z,98.50
